Time,TemperatureF,DewpointF,PressureIn,WindDirection,WindDirectionDegrees,WindSpeedMPH,WindSpeedGustMPH,Humidity,HourlyPrecipIn,Conditions,Clouds,dailyrainin,SoftwareType,DateUTC
2013-05-18 00:01:00,61.5,59.5,29.75,WSW,247,0.0,-999.0,90,0.00,,,0.00,Custom/Perl,2013-05-18 05:01:00,
2013-05-18 00:06:00,61.7,59.7,29.76,WSW,247,0.0,-999.0,90,0.00,,,0.00,Custom/Perl,2013-05-18 05:06:00,
2013-05-18 00:12:00,61.8,59.4,29.76,WSW,247,0.0,-999.0,88,0.00,,,0.00,Custom/Perl,2013-05-18 05:12:00,
2013-05-18 00:17:00,61.6,59.2,29.76,WSW,247,0.0,-999.0,88,0.00,,,0.00,Custom/Perl,2013-05-18 05:17:00,
2013-05-18 00:22:00,61.4,59.0,29.76,WSW,247,0.0,-999.0,88,0.00,,,0.00,Custom/Perl,2013-05-18 05:22:00,
2013-05-18 00:27:00,61.2,58.8,29.76,WSW,247,0.0,-999.0,88,0.00,,,0.00,Custom/Perl,2013-05-18 05:27:00,
2013-05-18 00:32:00,61.1,58.7,29.76,WSW,247,0.0,-999.0,88,0.00,,,0.00,Custom/Perl,2013-05-18 05:32:00,
2013-05-18 00:38:00,60.9,58.7,29.76,WSW,247,0.0,-999.0,89,0.00,,,0.00,Custom/Perl,2013-05-18 05:38:00,
2013-05-18 00:43:00,60.8,58.8,29.76,WSW,247,0.0,-999.0,90,0.00,,,0.00,Custom/Perl,2013-05-18 05:43:00,
2013-05-18 00:48:00,60.7,58.7,29.76,WSW,247,0.0,-999.0,90,0.00,,,0.00,Custom/Perl,2013-05-18 05:48:00,
2013-05-18 00:53:00,60.5,58.7,29.76,WSW,247,0.0,-999.0,91,0.00,,,0.00,Custom/Perl,2013-05-18 05:53:00,
2013-05-18 00:59:00,60.5,58.7,29.76,WSW,247,0.0,-999.0,91,0.00,,,0.00,Custom/Perl,2013-05-18 05:59:00,
2013-05-18 01:04:00,60.4,58.6,29.75,WSW,247,0.0,-999.0,91,0.00,,,0.00,Custom/Perl,2013-05-18 06:04:00,
2013-05-18 01:09:00,60.3,58.5,29.75,WSW,247,0.0,-999.0,91,0.00,,,0.00,Custom/Perl,2013-05-18 06:09:00,
2013-05-18 01:14:00,60.1,58.3,29.75,WSW,247,0.0,-999.0,91,0.00,,,0.00,Custom/Perl,2013-05-18 06:14:00,
2013-05-18 01:19:00,60.0,58.4,29.75,WSW,247,0.0,-999.0,92,0.00,,,0.00,Custom/Perl,2013-05-18 06:19:00,
2013-05-18 01:25:00,59.8,58.2,29.74,WSW,247,0.0,-999.0,92,0.00,,,0.00,Custom/Perl,2013-05-18 06:25:00,
2013-05-18 01:30:00,59.7,58.1,29.74,WSW,247,0.0,-999.0,92,0.00,,,0.00,Custom/Perl,2013-05-18 06:30:00,
2013-05-18 01:35:00,59.6,58.0,29.74,WSW,247,0.0,-999.0,92,0.00,,,0.00,Custom/Perl,2013-05-18 06:35:00,
2013-05-18 01:40:00,59.6,58.2,29.74,WSW,247,0.0,-999.0,93,0.00,,,0.00,Custom/Perl,2013-05-18 06:40:00,
2013-05-18 01:45:00,59.7,58.3,29.74,WSW,247,0.0,-999.0,93,0.00,,,0.00,Custom/Perl,2013-05-18 06:45:00,
2013-05-18 01:51:00,59.6,58.0,29.74,WSW,247,0.0,-999.0,92,0.00,,,0.00,Custom/Perl,2013-05-18 06:51:00,
2013-05-18 01:56:00,59.3,57.7,29.74,WSW,247,0.0,-999.0,92,0.00,,,0.00,Custom/Perl,2013-05-18 06:56:00,
2013-05-18 02:01:00,59.2,57.6,29.74,WSW,247,0.0,-999.0,92,0.00,,,0.00,Custom/Perl,2013-05-18 07:01:00,
2013-05-18 02:06:00,58.9,57.3,29.73,WSW,247,0.0,-999.0,92,0.00,,,0.00,Custom/Perl,2013-05-18 07:06:00,
2013-05-18 02:11:00,58.8,57.2,29.73,WSW,247,0.0,-999.0,92,0.00,,,0.00,Custom/Perl,2013-05-18 07:11:00,
2013-05-18 02:17:00,58.8,57.4,29.73,WSW,247,0.0,-999.0,93,0.00,,,0.00,Custom/Perl,2013-05-18 07:17:00,
2013-05-18 02:22:00,58.7,57.3,29.73,WSW,247,0.0,-999.0,93,0.00,,,0.00,Custom/Perl,2013-05-18 07:22:00,
2013-05-18 02:27:00,58.8,57.6,29.73,WSW,247,0.0,-999.0,94,0.00,,,0.00,Custom/Perl,2013-05-18 07:27:00,
2013-05-18 02:32:00,58.8,57.6,29.73,WSW,247,0.0,-999.0,94,0.00,,,0.00,Custom/Perl,2013-05-18 07:32:00,
2013-05-18 02:38:00,58.8,57.6,29.73,WSW,247,0.0,-999.0,94,0.00,,,0.00,Custom/Perl,2013-05-18 07:38:00,
2013-05-18 02:43:00,58.7,57.5,29.73,WSW,247,0.0,-999.0,94,0.00,,,0.00,Custom/Perl,2013-05-18 07:43:00,
2013-05-18 02:48:00,58.6,57.4,29.73,WSW,247,0.0,-999.0,94,0.00,,,0.00,Custom/Perl,2013-05-18 07:48:00,
2013-05-18 02:53:00,58.6,57.4,29.73,WSW,247,0.0,-999.0,94,0.00,,,0.00,Custom/Perl,2013-05-18 07:53:00,
2013-05-18 02:59:00,58.5,57.1,29.73,WSW,247,0.0,-999.0,93,0.00,,,0.00,Custom/Perl,2013-05-18 07:59:00,
2013-05-18 03:04:00,58.3,56.9,29.73,WSW,247,0.0,-999.0,93,0.00,,,0.00,Custom/Perl,2013-05-18 08:04:00,
2013-05-18 03:09:00,58.2,56.8,29.73,WSW,247,0.0,-999.0,93,0.00,,,0.00,Custom/Perl,2013-05-18 08:09:00,
2013-05-18 03:14:00,58.2,57.0,29.73,WSW,247,0.0,-999.0,94,0.00,,,0.00,Custom/Perl,2013-05-18 08:14:00,
2013-05-18 03:19:00,58.2,57.0,29.73,WSW,247,0.0,-999.0,94,0.00,,,0.00,Custom/Perl,2013-05-18 08:19:00,
2013-05-18 03:25:00,58.2,57.0,29.73,WSW,247,0.0,-999.0,94,0.00,,,0.00,Custom/Perl,2013-05-18 08:25:00,
2013-05-18 03:30:00,58.0,56.8,29.73,WSW,247,0.0,-999.0,94,0.00,,,0.00,Custom/Perl,2013-05-18 08:30:00,
2013-05-18 03:35:00,57.9,56.7,29.73,WSW,247,0.0,-999.0,94,0.00,,,0.00,Custom/Perl,2013-05-18 08:35:00,
2013-05-18 03:40:00,58.1,57.1,29.73,WSW,247,0.0,-999.0,95,0.00,,,0.00,Custom/Perl,2013-05-18 08:40:00,
2013-05-18 03:46:00,58.2,57.2,29.73,WSW,247,0.0,-999.0,95,0.00,,,0.00,Custom/Perl,2013-05-18 08:46:00,
2013-05-18 03:51:00,58.2,57.2,29.73,WSW,247,0.0,-999.0,95,0.00,,,0.00,Custom/Perl,2013-05-18 08:51:00,
2013-05-18 03:56:00,58.4,57.6,29.73,WSW,247,0.0,-999.0,96,0.00,,,0.00,Custom/Perl,2013-05-18 08:56:00,
2013-05-18 04:01:00,58.3,57.3,29.73,WSW,247,0.0,-999.0,95,0.00,,,0.00,Custom/Perl,2013-05-18 09:01:00,
2013-05-18 04:06:00,58.2,57.2,29.73,WSW,247,0.0,-999.0,95,0.00,,,0.00,Custom/Perl,2013-05-18 09:06:00,
2013-05-18 04:12:00,58.0,57.0,29.73,WSW,247,0.0,-999.0,95,0.00,,,0.00,Custom/Perl,2013-05-18 09:12:00,
2013-05-18 04:17:00,57.8,56.8,29.73,WSW,247,0.0,-999.0,95,0.00,,,0.00,Custom/Perl,2013-05-18 09:17:00,
2013-05-18 04:22:00,57.8,57.0,29.73,WSW,247,0.0,-999.0,96,0.00,,,0.00,Custom/Perl,2013-05-18 09:22:00,
2013-05-18 04:27:00,58.0,57.2,29.73,WSW,247,0.0,-999.0,96,0.00,,,0.00,Custom/Perl,2013-05-18 09:27:00,
2013-05-18 04:32:00,57.9,57.1,29.73,WSW,247,0.0,-999.0,96,0.00,,,0.00,Custom/Perl,2013-05-18 09:32:00,
2013-05-18 04:38:00,57.8,56.8,29.73,WSW,247,0.0,-999.0,95,0.00,,,0.00,Custom/Perl,2013-05-18 09:38:00,
2013-05-18 04:43:00,57.6,56.6,29.72,WSW,247,0.0,-999.0,95,0.00,,,0.00,Custom/Perl,2013-05-18 09:43:00,
2013-05-18 04:48:00,57.9,57.3,29.73,WSW,247,0.0,-999.0,97,0.00,,,0.00,Custom/Perl,2013-05-18 09:48:00,
2013-05-18 04:53:00,58.7,58.1,29.72,WSW,247,0.0,-999.0,97,0.00,,,0.00,Custom/Perl,2013-05-18 09:53:00,
2013-05-18 04:58:00,59.0,58.4,29.72,WSW,247,0.0,-999.0,97,0.00,,,0.00,Custom/Perl,2013-05-18 09:58:00,
2013-05-18 05:04:00,58.7,57.9,29.72,WSW,247,0.0,-999.0,96,0.00,,,0.00,Custom/Perl,2013-05-18 10:04:00,
2013-05-18 05:09:00,59.3,58.7,29.72,WSW,246,0.0,-999.0,97,0.00,,,0.00,Custom/Perl,2013-05-18 10:09:00,
2013-05-18 05:14:00,59.6,58.8,29.72,WSW,245,1.0,-999.0,96,0.00,,,0.00,Custom/Perl,2013-05-18 10:14:00,
2013-05-18 05:19:00,59.7,58.9,29.72,WSW,245,0.0,-999.0,96,0.00,,,0.00,Custom/Perl,2013-05-18 10:19:00,
2013-05-18 05:25:00,59.5,58.5,29.72,WSW,245,0.0,-999.0,95,0.00,,,0.00,Custom/Perl,2013-05-18 10:25:00,
2013-05-18 05:30:00,59.5,58.7,29.72,WSW,245,0.0,-999.0,96,0.00,,,0.00,Custom/Perl,2013-05-18 10:30:00,
2013-05-18 05:35:00,59.9,59.3,29.72,WSW,245,0.0,-999.0,97,0.00,,,0.00,Custom/Perl,2013-05-18 10:35:00,
2013-05-18 05:40:00,60.4,59.8,29.72,WSW,245,0.0,-999.0,97,0.00,,,0.00,Custom/Perl,2013-05-18 10:40:00,
2013-05-18 05:45:00,61.1,60.5,29.72,WSW,246,0.0,-999.0,97,0.00,,,0.00,Custom/Perl,2013-05-18 10:45:00,
2013-05-18 05:51:00,61.7,60.9,29.72,NNW,327,0.0,-999.0,96,0.00,,,0.00,Custom/Perl,2013-05-18 10:51:00,
2013-05-18 05:56:00,62.1,60.9,29.72,NW,307,0.0,-999.0,94,0.00,,,0.00,Custom/Perl,2013-05-18 10:56:00,
2013-05-18 06:01:00,62.3,61.1,29.73,WNW,292,0.0,-999.0,94,0.00,,,0.00,Custom/Perl,2013-05-18 11:01:00,
2013-05-18 06:06:00,62.3,61.1,29.73,South,174,0.0,-999.0,94,0.00,,,0.00,Custom/Perl,2013-05-18 11:06:00,
2013-05-18 06:11:00,62.4,61.2,29.73,West,279,0.0,-999.0,94,0.00,,,0.00,Custom/Perl,2013-05-18 11:11:00,
2013-05-18 06:17:00,62.5,61.1,29.73,West,279,0.0,-999.0,93,0.00,,,0.00,Custom/Perl,2013-05-18 11:17:00,
2013-05-18 06:22:00,62.5,61.1,29.72,West,279,0.0,-999.0,93,0.00,,,0.00,Custom/Perl,2013-05-18 11:22:00,
2013-05-18 06:27:00,62.7,61.3,29.72,West,279,0.0,-999.0,93,0.00,,,0.00,Custom/Perl,2013-05-18 11:27:00,
2013-05-18 06:32:00,63.0,61.6,29.73,West,267,0.0,-999.0,93,0.00,,,0.00,Custom/Perl,2013-05-18 11:32:00,
2013-05-18 06:37:00,63.2,61.8,29.73,WSW,243,0.0,-999.0,93,0.00,,,0.00,Custom/Perl,2013-05-18 11:37:00,
2013-05-18 06:43:00,63.4,61.8,29.73,SSW,205,0.0,-999.0,92,0.00,,,0.00,Custom/Perl,2013-05-18 11:43:00,
2013-05-18 06:48:00,63.6,62.0,29.73,South,174,0.0,-999.0,92,0.00,,,0.00,Custom/Perl,2013-05-18 11:48:00,
2013-05-18 06:53:00,63.8,62.2,29.74,SW,227,0.0,-999.0,92,0.00,,,0.00,Custom/Perl,2013-05-18 11:53:00,
2013-05-18 06:58:00,64.0,62.4,29.74,WSW,241,0.0,-999.0,92,0.00,,,0.00,Custom/Perl,2013-05-18 11:58:00,
2013-05-18 07:04:00,64.1,62.5,29.73,WSW,242,0.0,-999.0,92,0.00,,,0.00,Custom/Perl,2013-05-18 12:04:00,
2013-05-18 07:09:00,64.1,62.3,29.73,WSW,242,0.0,-999.0,91,0.00,,,0.00,Custom/Perl,2013-05-18 12:09:00,
2013-05-18 07:14:00,64.1,62.3,29.73,WSW,242,0.0,-999.0,91,0.00,,,0.00,Custom/Perl,2013-05-18 12:14:00,
2013-05-18 07:19:00,64.1,62.3,29.74,WSW,242,0.0,-999.0,91,0.00,,,0.00,Custom/Perl,2013-05-18 12:19:00,
2013-05-18 07:25:00,64.2,62.6,29.74,WSW,242,0.0,-999.0,92,0.00,,,0.00,Custom/Perl,2013-05-18 12:25:00,
2013-05-18 07:30:00,64.6,63.0,29.73,WSW,243,0.0,-999.0,92,0.00,,,0.00,Custom/Perl,2013-05-18 12:30:00,
2013-05-18 07:35:00,64.9,63.1,29.73,WSW,243,0.0,-999.0,91,0.00,,,0.00,Custom/Perl,2013-05-18 12:35:00,
2013-05-18 07:40:00,65.1,63.3,29.73,WSW,238,0.0,-999.0,91,0.00,,,0.00,Custom/Perl,2013-05-18 12:40:00,
2013-05-18 07:45:00,65.4,63.4,29.73,ESE,107,0.0,-999.0,90,0.00,,,0.00,Custom/Perl,2013-05-18 12:45:00,
2013-05-18 07:51:00,65.7,63.7,29.73,ESE,119,0.0,-999.0,90,0.00,,,0.00,Custom/Perl,2013-05-18 12:51:00,
2013-05-18 07:56:00,66.3,64.3,29.73,North,359,0.0,-999.0,90,0.00,,,0.00,Custom/Perl,2013-05-18 12:56:00,
2013-05-18 08:01:00,66.6,64.2,29.72,SW,224,0.0,-999.0,88,0.00,,,0.00,Custom/Perl,2013-05-18 13:01:00,
2013-05-18 08:06:00,66.9,64.5,29.72,West,266,0.0,-999.0,88,0.00,,,0.00,Custom/Perl,2013-05-18 13:06:00,
2013-05-18 08:11:00,67.4,65.0,29.71,WNW,282,0.0,-999.0,88,0.00,,,0.00,Custom/Perl,2013-05-18 13:11:00,
2013-05-18 08:17:00,67.9,65.3,29.71,West,277,0.0,-999.0,87,0.00,,,0.00,Custom/Perl,2013-05-18 13:17:00,
2013-05-18 08:22:00,68.3,65.5,29.71,WNW,300,0.0,-999.0,86,0.00,,,0.00,Custom/Perl,2013-05-18 13:22:00,
2013-05-18 08:27:00,68.7,65.9,29.70,WSW,252,0.0,-999.0,86,0.00,,,0.00,Custom/Perl,2013-05-18 13:27:00,
2013-05-18 08:32:00,69.1,66.1,29.70,NW,326,1.0,-999.0,85,0.00,,,0.00,Custom/Perl,2013-05-18 13:32:00,
2013-05-18 08:37:00,69.4,66.4,29.70,WSW,257,0.0,-999.0,85,0.00,,,0.00,Custom/Perl,2013-05-18 13:37:00,
2013-05-18 08:43:00,69.8,66.8,29.70,WSW,257,0.0,-999.0,85,0.00,,,0.00,Custom/Perl,2013-05-18 13:43:00,
2013-05-18 08:48:00,70.3,67.1,29.70,NW,310,1.0,-999.0,84,0.00,,,0.00,Custom/Perl,2013-05-18 13:48:00,
2013-05-18 08:53:00,70.8,67.4,29.70,WSW,257,1.0,-999.0,83,0.00,,,0.00,Custom/Perl,2013-05-18 13:53:00,
2013-05-18 08:58:00,71.3,67.9,29.70,NW,307,1.0,-999.0,83,0.00,,,0.00,Custom/Perl,2013-05-18 13:58:00,
2013-05-18 09:04:00,71.9,68.3,29.70,West,262,0.0,-999.0,82,0.00,,,0.00,Custom/Perl,2013-05-18 14:04:00,
2013-05-18 09:09:00,72.6,68.8,29.70,WSW,255,1.0,-999.0,81,0.00,,,0.00,Custom/Perl,2013-05-18 14:09:00,
2013-05-18 09:14:00,73.2,69.0,29.70,NNW,347,2.0,-999.0,79,0.00,,,0.00,Custom/Perl,2013-05-18 14:14:00,
2013-05-18 09:19:00,73.9,69.7,29.70,NW,321,0.0,-999.0,79,0.00,,,0.00,Custom/Perl,2013-05-18 14:19:00,
2013-05-18 09:25:00,74.2,69.8,29.70,WSW,240,3.0,-999.0,78,0.00,,,0.00,Custom/Perl,2013-05-18 14:25:00,
2013-05-18 09:30:00,74.8,70.2,29.70,East,99,1.0,-999.0,77,0.00,,,0.00,Custom/Perl,2013-05-18 14:30:00,
2013-05-18 09:35:00,75.5,70.7,29.70,West,271,0.0,-999.0,76,0.00,,,0.00,Custom/Perl,2013-05-18 14:35:00,
2013-05-18 09:40:00,76.1,70.9,29.70,WNW,300,0.0,-999.0,74,0.00,,,0.00,Custom/Perl,2013-05-18 14:40:00,
2013-05-18 09:45:00,76.9,71.3,29.70,WNW,297,2.0,-999.0,72,0.00,,,0.00,Custom/Perl,2013-05-18 14:45:00,
2013-05-18 09:51:00,77.5,71.9,29.70,SW,231,0.0,-999.0,72,0.00,,,0.00,Custom/Perl,2013-05-18 14:51:00,
2013-05-18 09:56:00,77.8,72.2,29.69,SW,236,1.0,-999.0,72,0.00,,,0.00,Custom/Perl,2013-05-18 14:56:00,
2013-05-18 10:01:00,78.6,72.8,29.69,NNW,334,1.0,-999.0,71,0.00,,,0.00,Custom/Perl,2013-05-18 15:01:00,
2013-05-18 10:06:00,79.0,73.0,29.69,SW,235,2.0,-999.0,70,0.00,,,0.00,Custom/Perl,2013-05-18 15:06:00,
2013-05-18 10:11:00,79.4,73.0,29.69,NNE,27,3.0,-999.0,68,0.00,,,0.00,Custom/Perl,2013-05-18 15:11:00,
2013-05-18 10:17:00,79.8,73.6,29.69,WNW,287,0.0,-999.0,69,0.00,,,0.00,Custom/Perl,2013-05-18 15:17:00,
2013-05-18 10:22:00,80.3,73.7,29.70,SW,227,2.0,-999.0,67,0.00,,,0.00,Custom/Perl,2013-05-18 15:22:00,
2013-05-18 10:27:00,80.2,73.6,29.71,WSW,237,1.0,-999.0,67,0.00,,,0.00,Custom/Perl,2013-05-18 15:27:00,
2013-05-18 10:32:00,80.3,73.9,29.72,NW,320,2.0,-999.0,68,0.00,,,0.00,Custom/Perl,2013-05-18 15:32:00,
2013-05-18 10:37:00,80.3,74.1,29.71,WSW,240,0.0,-999.0,69,0.00,,,0.00,Custom/Perl,2013-05-18 15:37:00,
2013-05-18 10:42:00,80.7,74.3,29.72,WSW,243,0.0,-999.0,68,0.00,,,0.00,Custom/Perl,2013-05-18 15:42:00,
2013-05-18 10:48:00,80.8,74.4,29.71,NW,316,0.0,-999.0,68,0.00,,,0.00,Custom/Perl,2013-05-18 15:48:00,
2013-05-18 10:53:00,80.7,74.1,29.71,NE,34,2.0,-999.0,67,0.00,,,0.00,Custom/Perl,2013-05-18 15:53:00,
2013-05-18 10:58:00,80.7,74.5,29.70,SW,214,1.0,-999.0,69,0.00,,,0.00,Custom/Perl,2013-05-18 15:58:00,
2013-05-18 11:03:00,80.8,74.4,29.70,SSW,207,3.0,-999.0,68,0.00,,,0.00,Custom/Perl,2013-05-18 16:03:00,
2013-05-18 11:08:00,80.9,74.5,29.70,SW,231,5.0,-999.0,68,0.00,,,0.00,Custom/Perl,2013-05-18 16:08:00,
2013-05-18 11:14:00,81.1,74.7,29.70,South,185,4.0,-999.0,68,0.00,,,0.00,Custom/Perl,2013-05-18 16:14:00,
2013-05-18 11:19:00,81.2,74.6,29.70,SW,234,4.0,-999.0,67,0.00,,,0.00,Custom/Perl,2013-05-18 16:19:00,
2013-05-18 11:24:00,81.3,74.7,29.69,SW,234,2.0,-999.0,67,0.00,,,0.00,Custom/Perl,2013-05-18 16:24:00,
2013-05-18 11:29:00,81.4,75.0,29.70,NNW,337,0.0,-999.0,68,0.00,,,0.00,Custom/Perl,2013-05-18 16:29:00,
2013-05-18 11:34:00,81.8,75.2,29.69,WSW,248,2.0,-999.0,67,0.00,,,0.00,Custom/Perl,2013-05-18 16:34:00,
2013-05-18 11:40:00,81.8,75.2,29.69,SW,215,3.0,-999.0,67,0.00,,,0.00,Custom/Perl,2013-05-18 16:40:00,
2013-05-18 11:45:00,82.1,75.5,29.69,NW,314,2.0,-999.0,67,0.00,,,0.00,Custom/Perl,2013-05-18 16:45:00,
2013-05-18 11:50:00,82.0,75.2,29.69,West,265,1.0,-999.0,66,0.00,,,0.00,Custom/Perl,2013-05-18 16:50:00,
2013-05-18 11:55:00,81.9,75.3,29.69,SSE,162,2.0,-999.0,67,0.00,,,0.00,Custom/Perl,2013-05-18 16:55:00,
2013-05-18 12:01:00,81.9,75.1,29.69,SSW,203,2.0,-999.0,66,0.00,,,0.00,Custom/Perl,2013-05-18 17:01:00,
2013-05-18 12:06:00,81.5,75.1,29.69,WNW,300,1.0,-999.0,68,0.00,,,0.00,Custom/Perl,2013-05-18 17:06:00,
2013-05-18 12:11:00,81.6,75.2,29.69,SW,221,2.0,-999.0,68,0.00,,,0.00,Custom/Perl,2013-05-18 17:11:00,
2013-05-18 12:16:00,82.0,75.4,29.69,NNW,338,3.0,-999.0,67,0.00,,,0.00,Custom/Perl,2013-05-18 17:16:00,
2013-05-18 12:21:00,82.1,75.5,29.69,SSW,201,2.0,-999.0,67,0.00,,,0.00,Custom/Perl,2013-05-18 17:21:00,
2013-05-18 12:27:00,82.2,75.8,29.68,WSW,251,0.0,-999.0,68,0.00,,,0.00,Custom/Perl,2013-05-18 17:27:00,
2013-05-18 12:32:00,82.8,75.8,29.68,WSW,238,1.0,-999.0,65,0.00,,,0.00,Custom/Perl,2013-05-18 17:32:00,
2013-05-18 12:38:00,83.0,76.0,29.68,WNW,289,1.0,-999.0,65,0.00,,,0.00,Custom/Perl,2013-05-18 17:38:00,
2013-05-18 12:43:00,82.7,75.7,29.68,NE,53,2.0,-999.0,65,0.00,,,0.00,Custom/Perl,2013-05-18 17:43:00,
2013-05-18 12:48:00,82.6,75.6,29.68,SSW,210,2.0,-999.0,65,0.00,,,0.00,Custom/Perl,2013-05-18 17:48:00,
2013-05-18 12:53:00,82.8,75.8,29.68,South,184,4.0,-999.0,65,0.00,,,0.00,Custom/Perl,2013-05-18 17:53:00,
2013-05-18 12:59:00,83.1,76.1,29.68,WSW,238,2.0,-999.0,65,0.00,,,0.00,Custom/Perl,2013-05-18 17:59:00,
2013-05-18 13:04:00,83.4,76.2,29.68,SW,226,1.0,-999.0,64,0.00,,,0.00,Custom/Perl,2013-05-18 18:04:00,
2013-05-18 13:09:00,83.0,75.8,29.68,West,278,3.0,-999.0,64,0.00,,,0.00,Custom/Perl,2013-05-18 18:09:00,
2013-05-18 13:14:00,82.6,75.6,29.67,SSW,205,3.0,-999.0,65,0.00,,,0.00,Custom/Perl,2013-05-18 18:14:00,
2013-05-18 13:19:00,82.2,75.4,29.67,West,264,2.0,-999.0,66,0.00,,,0.00,Custom/Perl,2013-05-18 18:19:00,
2013-05-18 13:25:00,82.2,75.4,29.67,West,280,1.0,-999.0,66,0.00,,,0.00,Custom/Perl,2013-05-18 18:25:00,
2013-05-18 13:30:00,82.4,75.8,29.67,SW,217,2.0,-999.0,67,0.00,,,0.00,Custom/Perl,2013-05-18 18:30:00,
2013-05-18 13:35:00,83.0,76.4,29.66,WNW,290,2.0,-999.0,67,0.00,,,0.00,Custom/Perl,2013-05-18 18:35:00,
2013-05-18 13:40:00,83.1,76.3,29.67,WNW,282,2.0,-999.0,66,0.00,,,0.00,Custom/Perl,2013-05-18 18:40:00,
2013-05-18 13:45:00,82.4,75.2,29.66,West,269,3.0,-999.0,64,0.00,,,0.00,Custom/Perl,2013-05-18 18:45:00,
2013-05-18 13:51:00,81.9,75.1,29.66,NW,306,1.0,-999.0,66,0.00,,,0.00,Custom/Perl,2013-05-18 18:51:00,
2013-05-18 13:56:00,81.7,74.9,29.66,SSE,150,5.0,-999.0,66,0.00,,,0.00,Custom/Perl,2013-05-18 18:56:00,
2013-05-18 14:01:00,81.2,74.6,29.66,NNW,327,1.0,-999.0,67,0.00,,,0.00,Custom/Perl,2013-05-18 19:01:00,
2013-05-18 14:06:00,80.7,74.3,29.66,SSW,203,1.0,-999.0,68,0.00,,,0.00,Custom/Perl,2013-05-18 19:06:00,
2013-05-18 14:11:00,80.3,74.3,29.66,South,181,0.0,-999.0,70,0.00,,,0.00,Custom/Perl,2013-05-18 19:11:00,
2013-05-18 14:17:00,80.1,74.1,29.66,SE,134,3.0,-999.0,70,0.00,,,0.00,Custom/Perl,2013-05-18 19:17:00,
2013-05-18 14:22:00,80.1,74.3,29.66,WSW,247,0.0,-999.0,71,0.00,,,0.00,Custom/Perl,2013-05-18 19:22:00,
2013-05-18 14:27:00,80.2,74.4,29.66,West,277,0.0,-999.0,71,0.00,,,0.00,Custom/Perl,2013-05-18 19:27:00,
2013-05-18 14:32:00,80.3,74.5,29.66,NW,315,0.0,-999.0,71,0.00,,,0.00,Custom/Perl,2013-05-18 19:32:00,
2013-05-18 14:37:00,80.5,74.7,29.66,SE,143,5.0,-999.0,71,0.00,,,0.00,Custom/Perl,2013-05-18 19:37:00,
2013-05-18 14:43:00,81.0,75.2,29.66,South,180,5.0,-999.0,71,0.00,,,0.00,Custom/Perl,2013-05-18 19:43:00,
2013-05-18 14:48:00,82.2,76.6,29.65,WSW,251,1.0,-999.0,72,0.00,,,0.00,Custom/Perl,2013-05-18 19:48:00,
2013-05-18 14:53:00,83.6,76.8,29.65,SW,234,1.0,-999.0,66,0.00,,,0.00,Custom/Perl,2013-05-18 19:53:00,
2013-05-18 14:58:00,83.4,76.6,29.65,SSW,209,2.0,-999.0,66,0.00,,,0.00,Custom/Perl,2013-05-18 19:58:00,
2013-05-18 15:04:00,83.0,76.2,29.65,WNW,295,2.0,-999.0,66,0.00,,,0.00,Custom/Perl,2013-05-18 20:04:00,
2013-05-18 15:09:00,82.7,76.1,29.65,South,186,9.0,-999.0,67,0.00,,,0.00,Custom/Perl,2013-05-18 20:09:00,
2013-05-18 15:14:00,82.4,76.0,29.65,North,358,1.0,-999.0,68,0.00,,,0.00,Custom/Perl,2013-05-18 20:14:00,
2013-05-18 15:19:00,82.4,76.0,29.65,West,267,1.0,-999.0,68,0.00,,,0.00,Custom/Perl,2013-05-18 20:19:00,
2013-05-18 15:24:00,82.7,76.3,29.65,NNW,338,1.0,-999.0,68,0.00,,,0.00,Custom/Perl,2013-05-18 20:24:00,
2013-05-18 15:30:00,83.3,76.9,29.64,WSW,247,2.0,-999.0,68,0.00,,,0.00,Custom/Perl,2013-05-18 20:30:00,
2013-05-18 15:35:00,84.0,77.2,29.64,WSW,252,3.0,-999.0,66,0.00,,,0.00,Custom/Perl,2013-05-18 20:35:00,
2013-05-18 15:40:00,84.8,78.0,29.64,NNW,330,1.0,-999.0,66,0.00,,,0.00,Custom/Perl,2013-05-18 20:40:00,
2013-05-18 15:45:00,85.5,78.3,29.63,NW,307,2.0,-999.0,64,0.00,,,0.00,Custom/Perl,2013-05-18 20:45:00,
2013-05-18 15:50:00,85.3,78.1,29.63,West,275,2.0,-999.0,64,0.00,,,0.00,Custom/Perl,2013-05-18 20:50:00,
2013-05-18 15:56:00,85.3,78.5,29.63,SW,231,1.0,-999.0,66,0.00,,,0.00,Custom/Perl,2013-05-18 20:56:00,
2013-05-18 16:01:00,85.0,78.0,29.63,SSW,212,1.0,-999.0,65,0.00,,,0.00,Custom/Perl,2013-05-18 21:01:00,
2013-05-18 16:06:00,84.9,77.9,29.63,South,187,2.0,-999.0,65,0.00,,,0.00,Custom/Perl,2013-05-18 21:06:00,
2013-05-18 16:11:00,84.7,77.9,29.63,West,281,1.0,-999.0,66,0.00,,,0.00,Custom/Perl,2013-05-18 21:11:00,
2013-05-18 16:16:00,84.6,77.8,29.62,WSW,245,1.0,-999.0,66,0.00,,,0.00,Custom/Perl,2013-05-18 21:16:00,
2013-05-18 16:22:00,84.4,77.4,29.62,SW,236,0.0,-999.0,65,0.00,,,0.00,Custom/Perl,2013-05-18 21:22:00,
2013-05-18 16:27:00,84.0,77.4,29.62,West,276,1.0,-999.0,67,0.00,,,0.00,Custom/Perl,2013-05-18 21:27:00,
2013-05-18 16:32:00,83.7,76.9,29.62,SW,227,1.0,-999.0,66,0.00,,,0.00,Custom/Perl,2013-05-18 21:32:00,
2013-05-18 16:37:00,83.5,76.9,29.62,SSW,203,3.0,-999.0,67,0.00,,,0.00,Custom/Perl,2013-05-18 21:37:00,
2013-05-18 16:42:00,83.3,76.9,29.63,NNW,347,1.0,-999.0,68,0.00,,,0.00,Custom/Perl,2013-05-18 21:42:00,
2013-05-18 16:48:00,83.3,76.7,29.62,West,267,2.0,-999.0,67,0.00,,,0.00,Custom/Perl,2013-05-18 21:48:00,
2013-05-18 16:53:00,83.1,76.5,29.63,NW,323,2.0,-999.0,67,0.00,,,0.00,Custom/Perl,2013-05-18 21:53:00,
2013-05-18 16:58:00,82.8,76.6,29.62,SW,232,1.0,-999.0,69,0.00,,,0.00,Custom/Perl,2013-05-18 21:58:00,
2013-05-18 17:03:00,82.8,76.6,29.62,SSW,213,3.0,-999.0,69,0.00,,,0.00,Custom/Perl,2013-05-18 22:03:00,
2013-05-18 17:08:00,82.7,76.7,29.62,WSW,250,1.0,-999.0,70,0.00,,,0.00,Custom/Perl,2013-05-18 22:08:00,
2013-05-18 17:14:00,82.6,76.4,29.61,West,264,2.0,-999.0,69,0.00,,,0.00,Custom/Perl,2013-05-18 22:14:00,
2013-05-18 17:19:00,82.5,76.5,29.61,SW,220,3.0,-999.0,70,0.00,,,0.00,Custom/Perl,2013-05-18 22:19:00,
2013-05-18 17:24:00,82.3,76.3,29.60,WSW,253,2.0,-999.0,70,0.00,,,0.00,Custom/Perl,2013-05-18 22:24:00,
2013-05-18 17:29:00,82.3,76.3,29.60,WNW,282,2.0,-999.0,70,0.00,,,0.00,Custom/Perl,2013-05-18 22:29:00,
2013-05-18 17:34:00,82.3,76.5,29.59,South,191,1.0,-999.0,71,0.00,,,0.00,Custom/Perl,2013-05-18 22:34:00,
2013-05-18 17:40:00,82.4,76.6,29.59,WSW,257,1.0,-999.0,71,0.00,,,0.00,Custom/Perl,2013-05-18 22:40:00,
2013-05-18 17:45:00,82.9,76.9,29.59,West,279,2.0,-999.0,70,0.00,,,0.00,Custom/Perl,2013-05-18 22:45:00,
2013-05-18 17:50:00,83.1,77.1,29.59,NNE,23,2.0,-999.0,70,0.00,,,0.00,Custom/Perl,2013-05-18 22:50:00,
2013-05-18 17:55:00,82.9,76.9,29.58,WNW,295,0.0,-999.0,70,0.00,,,0.00,Custom/Perl,2013-05-18 22:55:00,
2013-05-18 18:01:00,83.1,77.3,29.58,WSW,255,1.0,-999.0,71,0.00,,,0.00,Custom/Perl,2013-05-18 23:01:00,
2013-05-18 18:06:00,83.4,77.4,29.57,NW,314,2.0,-999.0,70,0.00,,,0.00,Custom/Perl,2013-05-18 23:06:00,
2013-05-18 18:11:00,83.0,76.8,29.56,West,273,0.0,-999.0,69,0.00,,,0.00,Custom/Perl,2013-05-18 23:11:00,
2013-05-18 18:16:00,82.8,76.8,29.58,South,180,2.0,-999.0,70,0.00,,,0.00,Custom/Perl,2013-05-18 23:16:00,
2013-05-18 18:21:00,83.0,77.0,29.58,SSE,167,1.0,-999.0,70,0.00,,,0.00,Custom/Perl,2013-05-18 23:21:00,
2013-05-18 18:26:00,82.9,76.9,29.59,SSW,206,7.0,-999.0,70,0.00,,,0.00,Custom/Perl,2013-05-18 23:26:00,
2013-05-18 18:32:00,82.8,76.8,29.59,West,276,1.0,-999.0,70,0.00,,,0.00,Custom/Perl,2013-05-18 23:32:00,
2013-05-18 18:37:00,82.6,76.8,29.59,SSW,210,5.0,-999.0,71,0.00,,,0.00,Custom/Perl,2013-05-18 23:37:00,
2013-05-18 18:42:00,82.2,76.6,29.58,WNW,303,2.0,-999.0,72,0.00,,,0.00,Custom/Perl,2013-05-18 23:42:00,
2013-05-18 18:47:00,81.8,76.4,29.57,NW,324,1.0,-999.0,73,0.00,,,0.00,Custom/Perl,2013-05-18 23:47:00,
2013-05-18 18:52:00,81.6,76.2,29.57,ESE,107,1.0,-999.0,73,0.00,,,0.00,Custom/Perl,2013-05-18 23:52:00,
2013-05-18 18:58:00,81.6,76.2,29.56,NW,304,3.0,-999.0,73,0.00,,,0.00,Custom/Perl,2013-05-18 23:58:00,
2013-05-18 19:03:00,81.9,76.5,29.56,SSE,160,1.0,-999.0,73,0.00,,,0.00,Custom/Perl,2013-05-19 00:03:00,
2013-05-18 19:08:00,82.2,76.8,29.56,SW,229,0.0,-999.0,73,0.00,,,0.00,Custom/Perl,2013-05-19 00:08:00,
2013-05-18 19:13:00,82.4,77.0,29.56,North,4,1.0,-999.0,73,0.00,,,0.00,Custom/Perl,2013-05-19 00:13:00,
2013-05-18 19:19:00,82.3,76.9,29.56,WNW,298,4.0,-999.0,73,0.00,,,0.00,Custom/Perl,2013-05-19 00:19:00,
2013-05-18 19:24:00,82.0,76.6,29.56,SW,229,6.0,-999.0,73,0.00,,,0.00,Custom/Perl,2013-05-19 00:24:00,
2013-05-18 19:29:00,81.8,76.6,29.56,WNW,288,1.0,-999.0,74,0.00,,,0.00,Custom/Perl,2013-05-19 00:29:00,
2013-05-18 19:34:00,81.5,76.3,29.55,West,281,1.0,-999.0,74,0.00,,,0.00,Custom/Perl,2013-05-19 00:34:00,
2013-05-18 19:39:00,80.9,76.1,29.55,West,268,0.0,-999.0,76,0.00,,,0.00,Custom/Perl,2013-05-19 00:39:00,
2013-05-18 19:45:00,80.4,75.6,29.55,WSW,251,1.0,-999.0,76,0.00,,,0.00,Custom/Perl,2013-05-19 00:45:00,
2013-05-18 19:50:00,80.0,75.4,29.55,West,259,2.0,-999.0,77,0.00,,,0.00,Custom/Perl,2013-05-19 00:50:00,
2013-05-18 19:55:00,79.8,75.2,29.55,NNW,329,1.0,-999.0,77,0.00,,,0.00,Custom/Perl,2013-05-19 00:55:00,
2013-05-18 20:00:00,79.4,75.0,29.55,NW,307,2.0,-999.0,78,0.00,,,0.00,Custom/Perl,2013-05-19 01:00:00,
2013-05-18 20:05:00,79.3,74.9,29.54,WNW,300,1.0,-999.0,78,0.00,,,0.00,Custom/Perl,2013-05-19 01:05:00,
2013-05-18 20:11:00,79.0,74.6,29.55,West,276,2.0,-999.0,78,0.00,,,0.00,Custom/Perl,2013-05-19 01:11:00,
2013-05-18 20:16:00,78.9,74.7,29.57,South,174,2.0,-999.0,79,0.00,,,0.00,Custom/Perl,2013-05-19 01:16:00,
2013-05-18 20:21:00,78.8,74.6,29.56,NNW,336,1.0,-999.0,79,0.00,,,0.00,Custom/Perl,2013-05-19 01:21:00,
2013-05-18 20:26:00,78.8,74.6,29.57,North,360,1.0,-999.0,79,0.00,,,0.00,Custom/Perl,2013-05-19 01:26:00,
2013-05-18 20:31:00,78.7,74.5,29.57,WSW,246,1.0,-999.0,79,0.00,,,0.00,Custom/Perl,2013-05-19 01:31:00,
2013-05-18 20:37:00,78.6,74.4,29.57,WNW,303,0.0,-999.0,79,0.00,,,0.00,Custom/Perl,2013-05-19 01:37:00,
2013-05-18 20:42:00,78.6,74.4,29.56,West,264,1.0,-999.0,79,0.00,,,0.00,Custom/Perl,2013-05-19 01:42:00,
2013-05-18 20:47:00,78.5,74.5,29.56,SSW,207,1.0,-999.0,80,0.00,,,0.00,Custom/Perl,2013-05-19 01:47:00,
2013-05-18 20:52:00,78.3,74.3,29.56,WSW,238,2.0,-999.0,80,0.00,,,0.00,Custom/Perl,2013-05-19 01:52:00,
2013-05-18 20:57:00,78.3,74.3,29.56,SW,236,0.0,-999.0,80,0.00,,,0.00,Custom/Perl,2013-05-19 01:57:00,
2013-05-18 21:03:00,78.2,74.2,29.56,SSE,155,1.0,-999.0,80,0.00,,,0.00,Custom/Perl,2013-05-19 02:03:00,
2013-05-18 21:08:00,78.1,74.1,29.56,WSW,245,0.0,-999.0,80,0.00,,,0.00,Custom/Perl,2013-05-19 02:08:00,
2013-05-18 21:13:00,78.1,74.1,29.56,SSW,195,1.0,-999.0,80,0.00,,,0.00,Custom/Perl,2013-05-19 02:13:00,
2013-05-18 21:18:00,78.1,74.3,29.56,WNW,285,0.0,-999.0,81,0.00,,,0.00,Custom/Perl,2013-05-19 02:18:00,
2013-05-18 21:23:00,78.0,74.2,29.56,NNW,342,1.0,-999.0,81,0.00,,,0.00,Custom/Perl,2013-05-19 02:23:00,
2013-05-18 21:29:00,77.8,74.0,29.56,SW,231,1.0,-999.0,81,0.00,,,0.00,Custom/Perl,2013-05-19 02:29:00,
2013-05-18 21:34:00,77.5,73.7,29.56,WNW,283,0.0,-999.0,81,0.00,,,0.00,Custom/Perl,2013-05-19 02:34:00,
2013-05-18 21:39:00,77.4,73.8,29.56,West,264,0.0,-999.0,82,0.00,,,0.00,Custom/Perl,2013-05-19 02:39:00,
2013-05-18 21:44:00,77.3,73.7,29.56,WSW,240,0.0,-999.0,82,0.00,,,0.00,Custom/Perl,2013-05-19 02:44:00,
2013-05-18 21:49:00,77.4,73.8,29.56,West,259,0.0,-999.0,82,0.00,,,0.00,Custom/Perl,2013-05-19 02:49:00,
2013-05-18 21:55:00,77.2,73.6,29.57,West,265,1.0,-999.0,82,0.00,,,0.00,Custom/Perl,2013-05-19 02:55:00,
2013-05-18 22:00:00,77.1,73.7,29.57,West,265,1.0,-999.0,83,0.00,,,0.00,Custom/Perl,2013-05-19 03:00:00,
2013-05-18 22:05:00,77.1,73.7,29.56,NNW,333,1.0,-999.0,83,0.00,,,0.00,Custom/Perl,2013-05-19 03:05:00,
2013-05-18 22:10:00,77.1,73.7,29.57,SW,231,1.0,-999.0,83,0.00,,,0.00,Custom/Perl,2013-05-19 03:10:00,
2013-05-18 22:16:00,77.0,73.6,29.57,SW,214,2.0,-999.0,83,0.00,,,0.00,Custom/Perl,2013-05-19 03:16:00,
2013-05-18 22:21:00,76.7,73.3,29.57,WSW,250,0.0,-999.0,83,0.00,,,0.00,Custom/Perl,2013-05-19 03:21:00,
2013-05-18 22:26:00,76.6,73.4,29.56,West,261,1.0,-999.0,84,0.00,,,0.00,Custom/Perl,2013-05-19 03:26:00,
2013-05-18 22:31:00,76.6,73.4,29.57,NW,323,2.0,-999.0,84,0.00,,,0.00,Custom/Perl,2013-05-19 03:31:00,
2013-05-18 22:36:00,76.6,73.4,29.56,South,191,0.0,-999.0,84,0.00,,,0.00,Custom/Perl,2013-05-19 03:36:00,
2013-05-18 22:42:00,76.4,73.2,29.56,West,274,0.0,-999.0,84,0.00,,,0.00,Custom/Perl,2013-05-19 03:42:00,
2013-05-18 22:47:00,76.4,73.2,29.57,SSW,200,1.0,-999.0,84,0.00,,,0.00,Custom/Perl,2013-05-19 03:47:00,
2013-05-18 22:52:00,76.4,73.2,29.57,SSW,205,1.0,-999.0,84,0.00,,,0.00,Custom/Perl,2013-05-19 03:52:00,
2013-05-18 22:57:00,76.4,73.2,29.58,SSW,210,0.0,-999.0,84,0.00,,,0.00,Custom/Perl,2013-05-19 03:57:00,
2013-05-18 23:01:00,76.4,73.4,29.57,West,278,1.0,-999.0,85,0.00,,,0.00,Custom/Perl,2013-05-19 04:01:00,
2013-05-18 23:02:00,76.3,73.3,29.57,WNW,292,1.0,-999.0,85,0.00,,,0.00,Custom/Perl,2013-05-19 04:02:00,
2013-05-18 23:04:00,76.3,73.3,29.58,SSE,152,2.0,-999.0,85,0.00,,,0.00,Custom/Perl,2013-05-19 04:04:00,
2013-05-18 23:09:00,76.3,73.3,29.59,SSE,160,4.0,-999.0,85,0.00,,,0.00,Custom/Perl,2013-05-19 04:09:00,
2013-05-18 23:15:00,76.4,73.4,29.59,SSW,211,0.0,-999.0,85,0.00,,,0.00,Custom/Perl,2013-05-19 04:15:00,
2013-05-18 23:20:00,76.3,73.3,29.60,SW,223,1.0,-999.0,85,0.00,,,0.00,Custom/Perl,2013-05-19 04:20:00,
2013-05-18 23:25:00,76.3,73.5,29.59,SSW,211,2.0,-999.0,86,0.00,,,0.00,Custom/Perl,2013-05-19 04:25:00,
2013-05-18 23:30:00,76.4,73.6,29.59,SSE,168,2.0,-999.0,86,0.00,,,0.00,Custom/Perl,2013-05-19 04:30:00,
2013-05-18 23:35:00,76.5,73.7,29.59,WSW,252,0.0,-999.0,86,0.00,,,0.00,Custom/Perl,2013-05-19 04:35:00,
2013-05-18 23:41:00,76.4,73.6,29.60,South,171,3.0,-999.0,86,0.00,,,0.00,Custom/Perl,2013-05-19 04:41:00,
2013-05-18 23:46:00,76.4,73.6,29.61,South,190,0.0,-999.0,86,0.00,,,0.00,Custom/Perl,2013-05-19 04:46:00,
2013-05-18 23:51:00,76.3,73.5,29.61,SSE,148,1.0,-999.0,86,0.00,,,0.00,Custom/Perl,2013-05-19 04:51:00,
2013-05-18 23:56:00,76.4,73.8,29.61,SW,217,2.0,-999.0,87,0.00,,,0.00,Custom/Perl,2013-05-19 04:56:00,